sensor_id;sensor_type;location;lat;lon;timestamp;P1;durP1;ratioP1;P2;durP2;ratioP2
62925;SDS011;55732;52.248;-0.844;2022-09-17T00:01:14;2.20;;;1.60;;
62925;SDS011;55732;52.248;-0.844;2022-09-17T00:03:42;3.20;;;1.90;;
62925;SDS011;55732;52.248;-0.844;2022-09-17T00:06:09;6.10;;;2.50;;
62925;SDS011;55732;52.248;-0.844;2022-09-17T00:08:37;3.60;;;2.10;;
62925;SDS011;55732;52.248;-0.844;2022-09-17T00:11:08;5.80;;;2.40;;
62925;SDS011;55732;52.248;-0.844;2022-09-17T00:13:35;4.60;;;2.20;;
62925;SDS011;55732;52.248;-0.844;2022-09-17T00:16:02;3.20;;;2.30;;
62925;SDS011;55732;52.248;-0.844;2022-09-17T00:18:27;6.60;;;2.50;;
62925;SDS011;55732;52.248;-0.844;2022-09-17T00:20:53;3.30;;;1.90;;
62925;SDS011;55732;52.248;-0.844;2022-09-17T00:23:18;3.20;;;2.20;;
62925;SDS011;55732;52.248;-0.844;2022-09-17T00:25:44;4.90;;;1.80;;
62925;SDS011;55732;52.248;-0.844;2022-09-17T00:28:11;3.50;;;1.60;;
62925;SDS011;55732;52.248;-0.844;2022-09-17T00:30:41;4.00;;;1.60;;
62925;SDS011;55732;52.248;-0.844;2022-09-17T00:33:10;3.40;;;1.80;;
62925;SDS011;55732;52.248;-0.844;2022-09-17T00:35:37;3.70;;;2.00;;
62925;SDS011;55732;52.248;-0.844;2022-09-17T00:38:02;2.70;;;1.90;;
62925;SDS011;55732;52.248;-0.844;2022-09-17T00:40:28;6.20;;;1.70;;
62925;SDS011;55732;52.248;-0.844;2022-09-17T00:42:53;19.30;;;2.50;;
62925;SDS011;55732;52.248;-0.844;2022-09-17T00:45:19;2.80;;;1.60;;
62925;SDS011;55732;52.248;-0.844;2022-09-17T00:47:45;3.10;;;1.70;;
62925;SDS011;55732;52.248;-0.844;2022-09-17T00:50:18;5.80;;;2.00;;
62925;SDS011;55732;52.248;-0.844;2022-09-17T00:52:49;2.40;;;1.70;;
62925;SDS011;55732;52.248;-0.844;2022-09-17T00:55:23;3.70;;;1.70;;
62925;SDS011;55732;52.248;-0.844;2022-09-17T00:57:53;2.60;;;1.70;;
62925;SDS011;55732;52.248;-0.844;2022-09-17T01:00:22;2.80;;;1.60;;
62925;SDS011;55732;52.248;-0.844;2022-09-17T01:02:48;5.40;;;2.00;;
62925;SDS011;55732;52.248;-0.844;2022-09-17T01:05:14;6.00;;;2.10;;
62925;SDS011;55732;52.248;-0.844;2022-09-17T01:07:51;3.30;;;1.80;;
62925;SDS011;55732;52.248;-0.844;2022-09-17T01:10:38;3.80;;;1.90;;
62925;SDS011;55732;52.248;-0.844;2022-09-17T01:13:42;2.70;;;1.60;;
62925;SDS011;55732;52.248;-0.844;2022-09-17T01:16:37;4.30;;;2.00;;
62925;SDS011;55732;52.248;-0.844;2022-09-17T01:22:39;3.60;;;1.90;;
62925;SDS011;55732;52.248;-0.844;2022-09-17T01:25:19;2.40;;;1.60;;
62925;SDS011;55732;52.248;-0.844;2022-09-17T01:30:30;2.50;;;1.80;;
62925;SDS011;55732;52.248;-0.844;2022-09-17T01:33:09;2.80;;;1.60;;
62925;SDS011;55732;52.248;-0.844;2022-09-17T01:38:41;4.30;;;1.80;;
62925;SDS011;55732;52.248;-0.844;2022-09-17T01:44:12;3.20;;;1.60;;
62925;SDS011;55732;52.248;-0.844;2022-09-17T01:46:46;2.60;;;1.90;;
62925;SDS011;55732;52.248;-0.844;2022-09-17T01:49:17;2.50;;;1.70;;
62925;SDS011;55732;52.248;-0.844;2022-09-17T01:51:46;2.60;;;1.70;;
62925;SDS011;55732;52.248;-0.844;2022-09-17T01:54:17;2.00;;;1.60;;
62925;SDS011;55732;52.248;-0.844;2022-09-17T01:56:48;3.80;;;1.60;;
62925;SDS011;55732;52.248;-0.844;2022-09-17T02:01:55;3.00;;;2.00;;
62925;SDS011;55732;52.248;-0.844;2022-09-17T02:07:46;4.90;;;1.50;;
62925;SDS011;55732;52.248;-0.844;2022-09-17T02:10:17;2.10;;;1.40;;
62925;SDS011;55732;52.248;-0.844;2022-09-17T02:12:48;2.20;;;1.60;;
62925;SDS011;55732;52.248;-0.844;2022-09-17T02:15:30;3.50;;;1.60;;
62925;SDS011;55732;52.248;-0.844;2022-09-17T02:18:06;1.60;;;1.40;;
62925;SDS011;55732;52.248;-0.844;2022-09-17T02:20:42;1.90;;;1.40;;
62925;SDS011;55732;52.248;-0.844;2022-09-17T02:23:17;2.70;;;1.80;;
62925;SDS011;55732;52.248;-0.844;2022-09-17T02:25:57;2.60;;;1.60;;
62925;SDS011;55732;52.248;-0.844;2022-09-17T02:28:32;2.50;;;1.60;;
62925;SDS011;55732;52.248;-0.844;2022-09-17T02:31:12;3.80;;;1.40;;
62925;SDS011;55732;52.248;-0.844;2022-09-17T02:33:38;3.20;;;1.40;;
62925;SDS011;55732;52.248;-0.844;2022-09-17T02:36:06;3.40;;;1.50;;
62925;SDS011;55732;52.248;-0.844;2022-09-17T02:38:32;2.00;;;1.50;;
62925;SDS011;55732;52.248;-0.844;2022-09-17T02:41:17;3.40;;;1.70;;
62925;SDS011;55732;52.248;-0.844;2022-09-17T02:46:51;2.10;;;1.70;;
62925;SDS011;55732;52.248;-0.844;2022-09-17T02:57:29;1.80;;;1.50;;
62925;SDS011;55732;52.248;-0.844;2022-09-17T03:00:04;1.70;;;1.20;;
62925;SDS011;55732;52.248;-0.844;2022-09-17T03:02:46;3.00;;;1.60;;
62925;SDS011;55732;52.248;-0.844;2022-09-17T03:05:16;6.20;;;1.70;;
62925;SDS011;55732;52.248;-0.844;2022-09-17T03:07:44;2.40;;;1.60;;
62925;SDS011;55732;52.248;-0.844;2022-09-17T03:10:09;1.70;;;1.60;;
62925;SDS011;55732;52.248;-0.844;2022-09-17T03:12:37;2.20;;;1.80;;
62925;SDS011;55732;52.248;-0.844;2022-09-17T03:15:04;3.10;;;1.70;;
62925;SDS011;55732;52.248;-0.844;2022-09-17T03:17:30;2.50;;;1.70;;
62925;SDS011;55732;52.248;-0.844;2022-09-17T03:19:55;4.20;;;1.80;;
62925;SDS011;55732;52.248;-0.844;2022-09-17T03:22:21;1.90;;;1.70;;
62925;SDS011;55732;52.248;-0.844;2022-09-17T03:24:46;2.70;;;1.70;;
62925;SDS011;55732;52.248;-0.844;2022-09-17T03:27:12;3.40;;;1.90;;
62925;SDS011;55732;52.248;-0.844;2022-09-17T03:29:37;2.10;;;1.70;;
62925;SDS011;55732;52.248;-0.844;2022-09-17T03:32:03;2.10;;;1.70;;
62925;SDS011;55732;52.248;-0.844;2022-09-17T03:34:29;3.70;;;1.90;;
62925;SDS011;55732;52.248;-0.844;2022-09-17T03:36:54;3.60;;;2.40;;
62925;SDS011;55732;52.248;-0.844;2022-09-17T03:39:20;2.80;;;2.00;;
62925;SDS011;55732;52.248;-0.844;2022-09-17T03:41:45;3.70;;;2.00;;
62925;SDS011;55732;52.248;-0.844;2022-09-17T03:44:11;2.40;;;1.90;;
62925;SDS011;55732;52.248;-0.844;2022-09-17T03:46:36;4.90;;;1.90;;
62925;SDS011;55732;52.248;-0.844;2022-09-17T03:49:02;2.70;;;1.90;;
62925;SDS011;55732;52.248;-0.844;2022-09-17T03:51:28;2.50;;;1.90;;
62925;SDS011;55732;52.248;-0.844;2022-09-17T03:53:53;3.40;;;1.90;;
62925;SDS011;55732;52.248;-0.844;2022-09-17T03:56:18;3.70;;;1.90;;
62925;SDS011;55732;52.248;-0.844;2022-09-17T03:58:44;2.20;;;1.80;;
62925;SDS011;55732;52.248;-0.844;2022-09-17T04:01:09;3.80;;;2.10;;
62925;SDS011;55732;52.248;-0.844;2022-09-17T04:03:35;4.30;;;2.70;;
62925;SDS011;55732;52.248;-0.844;2022-09-17T04:06:00;2.90;;;1.90;;
62925;SDS011;55732;52.248;-0.844;2022-09-17T04:08:26;1.90;;;1.60;;
62925;SDS011;55732;52.248;-0.844;2022-09-17T04:10:52;2.30;;;1.90;;
62925;SDS011;55732;52.248;-0.844;2022-09-17T04:13:18;5.30;;;1.90;;
62925;SDS011;55732;52.248;-0.844;2022-09-17T04:15:44;2.40;;;1.80;;
62925;SDS011;55732;52.248;-0.844;2022-09-17T04:18:11;2.70;;;2.20;;
62925;SDS011;55732;52.248;-0.844;2022-09-17T04:20:37;2.90;;;1.90;;
62925;SDS011;55732;52.248;-0.844;2022-09-17T04:23:03;2.10;;;1.70;;
62925;SDS011;55732;52.248;-0.844;2022-09-17T04:25:29;2.00;;;1.60;;
62925;SDS011;55732;52.248;-0.844;2022-09-17T04:27:55;3.60;;;1.80;;
62925;SDS011;55732;52.248;-0.844;2022-09-17T04:30:20;2.50;;;1.70;;
62925;SDS011;55732;52.248;-0.844;2022-09-17T04:32:46;2.70;;;2.30;;
62925;SDS011;55732;52.248;-0.844;2022-09-17T04:35:11;4.30;;;2.20;;
62925;SDS011;55732;52.248;-0.844;2022-09-17T04:37:37;4.90;;;1.80;;
62925;SDS011;55732;52.248;-0.844;2022-09-17T04:40:03;2.40;;;1.70;;
62925;SDS011;55732;52.248;-0.844;2022-09-17T04:42:30;3.20;;;2.10;;
62925;SDS011;55732;52.248;-0.844;2022-09-17T04:44:55;10.80;;;2.20;;
62925;SDS011;55732;52.248;-0.844;2022-09-17T04:47:21;4.30;;;2.30;;
62925;SDS011;55732;52.248;-0.844;2022-09-17T04:49:47;4.10;;;2.10;;
62925;SDS011;55732;52.248;-0.844;2022-09-17T04:52:13;4.50;;;2.30;;
62925;SDS011;55732;52.248;-0.844;2022-09-17T04:54:39;2.90;;;2.20;;
62925;SDS011;55732;52.248;-0.844;2022-09-17T04:57:04;3.70;;;2.20;;
62925;SDS011;55732;52.248;-0.844;2022-09-17T04:59:30;3.10;;;2.20;;
62925;SDS011;55732;52.248;-0.844;2022-09-17T05:01:56;3.60;;;2.20;;
62925;SDS011;55732;52.248;-0.844;2022-09-17T05:04:21;4.00;;;2.50;;
62925;SDS011;55732;52.248;-0.844;2022-09-17T05:06:46;2.30;;;2.10;;
62925;SDS011;55732;52.248;-0.844;2022-09-17T05:09:12;3.10;;;2.20;;
62925;SDS011;55732;52.248;-0.844;2022-09-17T05:11:38;3.10;;;1.80;;
62925;SDS011;55732;52.248;-0.844;2022-09-17T05:14:03;2.80;;;2.30;;
62925;SDS011;55732;52.248;-0.844;2022-09-17T05:16:29;2.60;;;2.10;;
62925;SDS011;55732;52.248;-0.844;2022-09-17T05:18:54;3.30;;;2.00;;
62925;SDS011;55732;52.248;-0.844;2022-09-17T05:21:20;5.30;;;2.40;;
62925;SDS011;55732;52.248;-0.844;2022-09-17T05:23:45;2.50;;;1.90;;
62925;SDS011;55732;52.248;-0.844;2022-09-17T05:26:12;3.80;;;2.20;;
62925;SDS011;55732;52.248;-0.844;2022-09-17T05:28:38;4.50;;;2.50;;
62925;SDS011;55732;52.248;-0.844;2022-09-17T05:31:03;4.30;;;1.90;;
62925;SDS011;55732;52.248;-0.844;2022-09-17T05:33:29;3.50;;;2.20;;
62925;SDS011;55732;52.248;-0.844;2022-09-17T05:35:55;2.80;;;2.00;;
62925;SDS011;55732;52.248;-0.844;2022-09-17T05:38:20;3.10;;;2.00;;
62925;SDS011;55732;52.248;-0.844;2022-09-17T05:40:46;5.20;;;2.20;;
62925;SDS011;55732;52.248;-0.844;2022-09-17T05:43:13;4.70;;;2.70;;
62925;SDS011;55732;52.248;-0.844;2022-09-17T05:45:38;6.30;;;2.50;;
62925;SDS011;55732;52.248;-0.844;2022-09-17T05:48:05;4.00;;;2.50;;
62925;SDS011;55732;52.248;-0.844;2022-09-17T05:50:37;4.20;;;2.70;;
62925;SDS011;55732;52.248;-0.844;2022-09-17T05:53:03;3.20;;;2.20;;
62925;SDS011;55732;52.248;-0.844;2022-09-17T05:55:35;3.70;;;2.80;;
62925;SDS011;55732;52.248;-0.844;2022-09-17T05:58:07;5.10;;;2.40;;
62925;SDS011;55732;52.248;-0.844;2022-09-17T06:00:36;4.20;;;2.40;;
62925;SDS011;55732;52.248;-0.844;2022-09-17T06:03:02;4.40;;;2.40;;
62925;SDS011;55732;52.248;-0.844;2022-09-17T06:05:28;5.50;;;2.60;;
62925;SDS011;55732;52.248;-0.844;2022-09-17T06:07:53;6.80;;;2.80;;
62925;SDS011;55732;52.248;-0.844;2022-09-17T06:10:18;4.90;;;2.80;;
62925;SDS011;55732;52.248;-0.844;2022-09-17T06:12:44;4.60;;;2.60;;
62925;SDS011;55732;52.248;-0.844;2022-09-17T06:15:09;4.90;;;2.70;;
62925;SDS011;55732;52.248;-0.844;2022-09-17T06:17:38;6.80;;;2.60;;
62925;SDS011;55732;52.248;-0.844;2022-09-17T06:20:05;5.10;;;2.70;;
62925;SDS011;55732;52.248;-0.844;2022-09-17T06:22:31;7.30;;;2.40;;
62925;SDS011;55732;52.248;-0.844;2022-09-17T06:24:57;3.90;;;2.50;;
62925;SDS011;55732;52.248;-0.844;2022-09-17T06:27:28;8.50;;;4.10;;
62925;SDS011;55732;52.248;-0.844;2022-09-17T06:29:58;17.90;;;7.30;;
62925;SDS011;55732;52.248;-0.844;2022-09-17T06:32:24;21.80;;;9.60;;
62925;SDS011;55732;52.248;-0.844;2022-09-17T06:34:49;15.20;;;7.40;;
62925;SDS011;55732;52.248;-0.844;2022-09-17T06:37:15;13.30;;;5.50;;
62925;SDS011;55732;52.248;-0.844;2022-09-17T06:39:41;9.20;;;4.80;;
62925;SDS011;55732;52.248;-0.844;2022-09-17T06:42:06;5.70;;;3.40;;
62925;SDS011;55732;52.248;-0.844;2022-09-17T06:44:32;10.30;;;4.50;;
62925;SDS011;55732;52.248;-0.844;2022-09-17T06:46:57;8.50;;;4.70;;
62925;SDS011;55732;52.248;-0.844;2022-09-17T06:49:22;8.50;;;3.70;;
62925;SDS011;55732;52.248;-0.844;2022-09-17T06:51:48;5.40;;;2.90;;
62925;SDS011;55732;52.248;-0.844;2022-09-17T06:54:14;3.60;;;2.60;;
62925;SDS011;55732;52.248;-0.844;2022-09-17T06:56:40;5.20;;;3.30;;
62925;SDS011;55732;52.248;-0.844;2022-09-17T06:59:05;6.00;;;3.40;;
62925;SDS011;55732;52.248;-0.844;2022-09-17T07:01:31;5.00;;;3.10;;
62925;SDS011;55732;52.248;-0.844;2022-09-17T07:03:57;5.50;;;2.30;;
62925;SDS011;55732;52.248;-0.844;2022-09-17T07:06:22;5.90;;;1.90;;
62925;SDS011;55732;52.248;-0.844;2022-09-17T07:08:48;3.20;;;2.00;;
62925;SDS011;55732;52.248;-0.844;2022-09-17T07:11:13;4.40;;;2.00;;
62925;SDS011;55732;52.248;-0.844;2022-09-17T07:13:40;7.50;;;2.40;;
62925;SDS011;55732;52.248;-0.844;2022-09-17T07:16:06;2.90;;;1.80;;
62925;SDS011;55732;52.248;-0.844;2022-09-17T07:18:32;6.40;;;2.30;;
62925;SDS011;55732;52.248;-0.844;2022-09-17T07:20:58;2.80;;;1.80;;
62925;SDS011;55732;52.248;-0.844;2022-09-17T07:23:26;5.00;;;2.10;;
62925;SDS011;55732;52.248;-0.844;2022-09-17T07:25:54;6.00;;;2.40;;
62925;SDS011;55732;52.248;-0.844;2022-09-17T07:28:21;4.00;;;2.10;;
62925;SDS011;55732;52.248;-0.844;2022-09-17T07:30:48;3.30;;;2.00;;
62925;SDS011;55732;52.248;-0.844;2022-09-17T07:33:14;5.70;;;2.00;;
62925;SDS011;55732;52.248;-0.844;2022-09-17T07:35:42;4.20;;;2.30;;
62925;SDS011;55732;52.248;-0.844;2022-09-17T07:38:07;4.40;;;1.90;;
62925;SDS011;55732;52.248;-0.844;2022-09-17T07:40:33;3.60;;;2.20;;
62925;SDS011;55732;52.248;-0.844;2022-09-17T07:42:58;4.90;;;2.10;;
62925;SDS011;55732;52.248;-0.844;2022-09-17T07:47:49;3.10;;;2.00;;
62925;SDS011;55732;52.248;-0.844;2022-09-17T07:50:15;4.30;;;2.20;;
62925;SDS011;55732;52.248;-0.844;2022-09-17T07:52:47;4.70;;;2.50;;
62925;SDS011;55732;52.248;-0.844;2022-09-17T07:55:13;2.90;;;2.00;;
62925;SDS011;55732;52.248;-0.844;2022-09-17T07:57:39;5.60;;;2.20;;
62925;SDS011;55732;52.248;-0.844;2022-09-17T08:00:05;4.30;;;1.80;;
62925;SDS011;55732;52.248;-0.844;2022-09-17T08:02:32;4.20;;;1.70;;
62925;SDS011;55732;52.248;-0.844;2022-09-17T08:04:57;2.40;;;1.70;;
62925;SDS011;55732;52.248;-0.844;2022-09-17T08:07:23;2.80;;;1.70;;
62925;SDS011;55732;52.248;-0.844;2022-09-17T08:09:48;1.60;;;1.30;;
62925;SDS011;55732;52.248;-0.844;2022-09-17T08:12:14;3.20;;;1.30;;
62925;SDS011;55732;52.248;-0.844;2022-09-17T08:14:42;1.40;;;1.30;;
62925;SDS011;55732;52.248;-0.844;2022-09-17T08:17:07;4.10;;;1.50;;
62925;SDS011;55732;52.248;-0.844;2022-09-17T08:19:33;2.50;;;1.50;;
62925;SDS011;55732;52.248;-0.844;2022-09-17T08:21:59;3.40;;;1.40;;
62925;SDS011;55732;52.248;-0.844;2022-09-17T08:24:25;3.80;;;1.30;;
62925;SDS011;55732;52.248;-0.844;2022-09-17T08:26:50;2.20;;;0.80;;
62925;SDS011;55732;52.248;-0.844;2022-09-17T08:29:16;2.70;;;1.10;;
62925;SDS011;55732;52.248;-0.844;2022-09-17T08:31:41;3.80;;;1.20;;
62925;SDS011;55732;52.248;-0.844;2022-09-17T08:34:07;1.40;;;0.90;;
62925;SDS011;55732;52.248;-0.844;2022-09-17T08:36:33;1.70;;;0.90;;
62925;SDS011;55732;52.248;-0.844;2022-09-17T08:38:59;2.30;;;0.90;;
62925;SDS011;55732;52.248;-0.844;2022-09-17T08:46:30;1.40;;;1.00;;
62925;SDS011;55732;52.248;-0.844;2022-09-17T08:49:06;2.80;;;1.00;;
62925;SDS011;55732;52.248;-0.844;2022-09-17T08:57:40;1.80;;;1.20;;
62925;SDS011;55732;52.248;-0.844;2022-09-17T09:00:17;1.70;;;1.20;;
62925;SDS011;55732;52.248;-0.844;2022-09-17T09:10:55;4.00;;;1.50;;
62925;SDS011;55732;52.248;-0.844;2022-09-17T09:13:26;2.10;;;1.30;;
62925;SDS011;55732;52.248;-0.844;2022-09-17T09:15:59;2.40;;;0.90;;
62925;SDS011;55732;52.248;-0.844;2022-09-17T09:18:33;0.80;;;0.80;;
62925;SDS011;55732;52.248;-0.844;2022-09-17T09:23:39;1.50;;;1.00;;
62925;SDS011;55732;52.248;-0.844;2022-09-17T09:33:56;1.60;;;1.10;;
62925;SDS011;55732;52.248;-0.844;2022-09-17T09:36:26;2.80;;;1.00;;
62925;SDS011;55732;52.248;-0.844;2022-09-17T09:38:59;2.30;;;1.10;;
62925;SDS011;55732;52.248;-0.844;2022-09-17T09:41:52;1.40;;;0.80;;
62925;SDS011;55732;52.248;-0.844;2022-09-17T09:44:23;2.60;;;0.90;;
62925;SDS011;55732;52.248;-0.844;2022-09-17T09:57:54;1.80;;;1.00;;
62925;SDS011;55732;52.248;-0.844;2022-09-17T10:00:41;1.70;;;1.10;;
62925;SDS011;55732;52.248;-0.844;2022-09-17T10:08:23;1.80;;;1.30;;
62925;SDS011;55732;52.248;-0.844;2022-09-17T10:13:27;3.00;;;1.40;;
62925;SDS011;55732;52.248;-0.844;2022-09-17T10:16:15;2.60;;;1.20;;
62925;SDS011;55732;52.248;-0.844;2022-09-17T10:18:44;2.50;;;1.30;;
62925;SDS011;55732;52.248;-0.844;2022-09-17T10:23:57;4.00;;;1.60;;
62925;SDS011;55732;52.248;-0.844;2022-09-17T10:26:29;3.40;;;1.30;;
62925;SDS011;55732;52.248;-0.844;2022-09-17T10:28:58;4.30;;;1.60;;
62925;SDS011;55732;52.248;-0.844;2022-09-17T10:31:26;3.90;;;1.10;;
62925;SDS011;55732;52.248;-0.844;2022-09-17T10:44:54;2.70;;;1.30;;
62925;SDS011;55732;52.248;-0.844;2022-09-17T10:47:25;2.30;;;1.10;;
62925;SDS011;55732;52.248;-0.844;2022-09-17T10:49:55;4.60;;;1.20;;
62925;SDS011;55732;52.248;-0.844;2022-09-17T10:52:27;4.10;;;1.40;;
62925;SDS011;55732;52.248;-0.844;2022-09-17T11:00:37;1.90;;;1.20;;
62925;SDS011;55732;52.248;-0.844;2022-09-17T11:20:18;2.30;;;1.30;;
62925;SDS011;55732;52.248;-0.844;2022-09-17T11:29:39;1.20;;;0.90;;
62925;SDS011;55732;52.248;-0.844;2022-09-17T11:32:52;1.80;;;1.20;;
62925;SDS011;55732;52.248;-0.844;2022-09-17T11:35:22;1.20;;;1.10;;
62925;SDS011;55732;52.248;-0.844;2022-09-17T11:38:10;4.70;;;1.50;;
62925;SDS011;55732;52.248;-0.844;2022-09-17T11:40:46;2.30;;;1.10;;
62925;SDS011;55732;52.248;-0.844;2022-09-17T11:43:20;4.00;;;1.10;;
62925;SDS011;55732;52.248;-0.844;2022-09-17T11:46:03;2.40;;;1.20;;
62925;SDS011;55732;52.248;-0.844;2022-09-17T11:51:11;0.70;;;0.70;;
62925;SDS011;55732;52.248;-0.844;2022-09-17T11:53:48;2.90;;;1.20;;
62925;SDS011;55732;52.248;-0.844;2022-09-17T12:01:54;2.40;;;1.10;;
62925;SDS011;55732;52.248;-0.844;2022-09-17T12:04:42;1.40;;;1.00;;
62925;SDS011;55732;52.248;-0.844;2022-09-17T12:15:50;1.50;;;1.00;;
62925;SDS011;55732;52.248;-0.844;2022-09-17T12:21:10;2.80;;;1.50;;
62925;SDS011;55732;52.248;-0.844;2022-09-17T12:35:04;5.10;;;1.30;;
62925;SDS011;55732;52.248;-0.844;2022-09-17T12:42:58;2.20;;;1.30;;
62925;SDS011;55732;52.248;-0.844;2022-09-17T12:52:01;2.40;;;1.30;;
62925;SDS011;55732;52.248;-0.844;2022-09-17T13:00:55;2.90;;;1.30;;
62925;SDS011;55732;52.248;-0.844;2022-09-17T13:03:26;2.60;;;1.40;;
62925;SDS011;55732;52.248;-0.844;2022-09-17T13:16:53;1.40;;;0.90;;
62925;SDS011;55732;52.248;-0.844;2022-09-17T13:20:30;6.80;;;1.20;;
62925;SDS011;55732;52.248;-0.844;2022-09-17T13:22:48;2.60;;;1.40;;
62925;SDS011;55732;52.248;-0.844;2022-09-17T13:25:16;1.50;;;1.20;;
62925;SDS011;55732;52.248;-0.844;2022-09-17T13:27:44;1.50;;;1.10;;
62925;SDS011;55732;52.248;-0.844;2022-09-17T13:30:12;1.30;;;1.00;;
62925;SDS011;55732;52.248;-0.844;2022-09-17T13:37:30;2.30;;;1.10;;
62925;SDS011;55732;52.248;-0.844;2022-09-17T13:39:59;2.30;;;1.20;;
62925;SDS011;55732;52.248;-0.844;2022-09-17T13:42:29;3.00;;;1.30;;
62925;SDS011;55732;52.248;-0.844;2022-09-17T13:45:10;1.80;;;1.10;;
62925;SDS011;55732;52.248;-0.844;2022-09-17T13:50:37;1.20;;;1.10;;
62925;SDS011;55732;52.248;-0.844;2022-09-17T14:03:58;2.00;;;0.80;;
62925;SDS011;55732;52.248;-0.844;2022-09-17T14:13:48;3.30;;;1.20;;
62925;SDS011;55732;52.248;-0.844;2022-09-17T14:35:20;2.30;;;1.00;;
62925;SDS011;55732;52.248;-0.844;2022-09-17T14:38:01;1.20;;;0.90;;
62925;SDS011;55732;52.248;-0.844;2022-09-17T14:40:33;2.80;;;1.00;;
62925;SDS011;55732;52.248;-0.844;2022-09-17T14:42:59;1.30;;;1.00;;
62925;SDS011;55732;52.248;-0.844;2022-09-17T14:45:28;1.80;;;0.90;;
62925;SDS011;55732;52.248;-0.844;2022-09-17T14:50:44;1.10;;;0.80;;
62925;SDS011;55732;52.248;-0.844;2022-09-17T14:53:13;2.20;;;0.90;;
62925;SDS011;55732;52.248;-0.844;2022-09-17T14:55:40;0.80;;;0.80;;
62925;SDS011;55732;52.248;-0.844;2022-09-17T14:58:18;1.70;;;0.90;;
62925;SDS011;55732;52.248;-0.844;2022-09-17T15:00:53;2.90;;;1.10;;
62925;SDS011;55732;52.248;-0.844;2022-09-17T15:03:22;1.00;;;0.90;;
62925;SDS011;55732;52.248;-0.844;2022-09-17T15:05:48;1.30;;;1.00;;
62925;SDS011;55732;52.248;-0.844;2022-09-17T15:08:21;2.40;;;1.10;;
62925;SDS011;55732;52.248;-0.844;2022-09-17T15:13:27;1.60;;;1.00;;
62925;SDS011;55732;52.248;-0.844;2022-09-17T15:18:32;2.60;;;1.10;;
62925;SDS011;55732;52.248;-0.844;2022-09-17T15:21:01;0.90;;;0.80;;
62925;SDS011;55732;52.248;-0.844;2022-09-17T15:23:31;2.90;;;1.10;;
62925;SDS011;55732;52.248;-0.844;2022-09-17T15:25:58;4.80;;;1.10;;
62925;SDS011;55732;52.248;-0.844;2022-09-17T15:28:35;3.00;;;1.50;;
62925;SDS011;55732;52.248;-0.844;2022-09-17T15:31:17;2.40;;;1.20;;
62925;SDS011;55732;52.248;-0.844;2022-09-17T15:33:44;2.90;;;1.30;;
62925;SDS011;55732;52.248;-0.844;2022-09-17T15:36:17;1.20;;;1.00;;
62925;SDS011;55732;52.248;-0.844;2022-09-17T15:38:47;1.40;;;1.30;;
62925;SDS011;55732;52.248;-0.844;2022-09-17T15:41:32;3.80;;;1.20;;
62925;SDS011;55732;52.248;-0.844;2022-09-17T15:44:16;3.60;;;1.50;;
62925;SDS011;55732;52.248;-0.844;2022-09-17T15:46:47;3.20;;;1.50;;
62925;SDS011;55732;52.248;-0.844;2022-09-17T15:49:26;4.00;;;1.50;;
62925;SDS011;55732;52.248;-0.844;2022-09-17T15:54:52;2.50;;;1.10;;
62925;SDS011;55732;52.248;-0.844;2022-09-17T15:57:17;1.10;;;1.00;;
62925;SDS011;55732;52.248;-0.844;2022-09-17T15:59:46;1.80;;;1.20;;
62925;SDS011;55732;52.248;-0.844;2022-09-17T16:02:26;1.30;;;1.20;;
62925;SDS011;55732;52.248;-0.844;2022-09-17T16:07:53;1.40;;;1.10;;
62925;SDS011;55732;52.248;-0.844;2022-09-17T16:10:18;1.80;;;1.20;;
62925;SDS011;55732;52.248;-0.844;2022-09-17T16:12:44;1.90;;;1.30;;
62925;SDS011;55732;52.248;-0.844;2022-09-17T16:15:13;2.50;;;1.50;;
62925;SDS011;55732;52.248;-0.844;2022-09-17T16:17:42;1.70;;;1.40;;
62925;SDS011;55732;52.248;-0.844;2022-09-17T16:20:17;3.30;;;1.60;;
62925;SDS011;55732;52.248;-0.844;2022-09-17T16:22:48;1.60;;;1.20;;
62925;SDS011;55732;52.248;-0.844;2022-09-17T16:25:14;2.10;;;1.40;;
62925;SDS011;55732;52.248;-0.844;2022-09-17T16:27:45;4.00;;;1.60;;
62925;SDS011;55732;52.248;-0.844;2022-09-17T16:30:21;4.30;;;1.80;;
62925;SDS011;55732;52.248;-0.844;2022-09-17T16:32:48;3.80;;;1.80;;
62925;SDS011;55732;52.248;-0.844;2022-09-17T16:35:18;1.60;;;1.50;;
62925;SDS011;55732;52.248;-0.844;2022-09-17T16:37:49;3.50;;;1.50;;
62925;SDS011;55732;52.248;-0.844;2022-09-17T16:40:16;1.00;;;0.90;;
62925;SDS011;55732;52.248;-0.844;2022-09-17T16:42:42;2.20;;;1.40;;
62925;SDS011;55732;52.248;-0.844;2022-09-17T16:45:08;3.10;;;2.10;;
62925;SDS011;55732;52.248;-0.844;2022-09-17T16:47:35;1.70;;;1.30;;
62925;SDS011;55732;52.248;-0.844;2022-09-17T16:50:03;1.70;;;1.30;;
62925;SDS011;55732;52.248;-0.844;2022-09-17T16:52:36;1.70;;;1.50;;
62925;SDS011;55732;52.248;-0.844;2022-09-17T16:55:02;2.40;;;1.30;;
62925;SDS011;55732;52.248;-0.844;2022-09-17T16:57:29;1.90;;;1.50;;
62925;SDS011;55732;52.248;-0.844;2022-09-17T16:59:55;2.70;;;1.70;;
62925;SDS011;55732;52.248;-0.844;2022-09-17T17:02:21;2.90;;;1.30;;
62925;SDS011;55732;52.248;-0.844;2022-09-17T17:04:46;3.20;;;1.50;;
62925;SDS011;55732;52.248;-0.844;2022-09-17T17:07:12;2.70;;;1.20;;
62925;SDS011;55732;52.248;-0.844;2022-09-17T17:09:37;2.20;;;1.30;;
62925;SDS011;55732;52.248;-0.844;2022-09-17T17:12:03;2.40;;;1.10;;
62925;SDS011;55732;52.248;-0.844;2022-09-17T17:14:29;1.00;;;0.90;;
62925;SDS011;55732;52.248;-0.844;2022-09-17T17:16:55;2.30;;;1.10;;
62925;SDS011;55732;52.248;-0.844;2022-09-17T17:19:20;2.00;;;1.30;;
62925;SDS011;55732;52.248;-0.844;2022-09-17T17:21:50;3.40;;;1.10;;
62925;SDS011;55732;52.248;-0.844;2022-09-17T17:24:16;2.10;;;1.00;;
62925;SDS011;55732;52.248;-0.844;2022-09-17T17:26:42;5.10;;;1.60;;
62925;SDS011;55732;52.248;-0.844;2022-09-17T17:29:07;3.10;;;1.60;;
62925;SDS011;55732;52.248;-0.844;2022-09-17T17:31:34;1.80;;;1.30;;
62925;SDS011;55732;52.248;-0.844;2022-09-17T17:33:59;2.30;;;1.50;;
62925;SDS011;55732;52.248;-0.844;2022-09-17T17:36:25;6.30;;;1.50;;
62925;SDS011;55732;52.248;-0.844;2022-09-17T17:38:57;1.60;;;1.40;;
62925;SDS011;55732;52.248;-0.844;2022-09-17T17:41:24;3.10;;;1.40;;
62925;SDS011;55732;52.248;-0.844;2022-09-17T17:43:54;3.20;;;1.40;;
62925;SDS011;55732;52.248;-0.844;2022-09-17T17:46:21;2.10;;;1.20;;
62925;SDS011;55732;52.248;-0.844;2022-09-17T17:48:48;3.00;;;1.50;;
62925;SDS011;55732;52.248;-0.844;2022-09-17T17:51:14;2.20;;;1.30;;
62925;SDS011;55732;52.248;-0.844;2022-09-17T17:53:43;2.10;;;1.60;;
62925;SDS011;55732;52.248;-0.844;2022-09-17T17:56:10;3.60;;;1.60;;
62925;SDS011;55732;52.248;-0.844;2022-09-17T17:58:37;2.30;;;1.70;;
62925;SDS011;55732;52.248;-0.844;2022-09-17T18:01:13;4.00;;;1.70;;
62925;SDS011;55732;52.248;-0.844;2022-09-17T18:03:41;3.20;;;1.70;;
62925;SDS011;55732;52.248;-0.844;2022-09-17T18:06:07;5.50;;;1.40;;
62925;SDS011;55732;52.248;-0.844;2022-09-17T18:08:36;5.60;;;1.90;;
62925;SDS011;55732;52.248;-0.844;2022-09-17T18:11:03;7.00;;;3.30;;
62925;SDS011;55732;52.248;-0.844;2022-09-17T18:13:31;5.30;;;3.00;;
62925;SDS011;55732;52.248;-0.844;2022-09-17T18:15:58;8.30;;;3.60;;
62925;SDS011;55732;52.248;-0.844;2022-09-17T18:18:26;7.50;;;3.00;;
62925;SDS011;55732;52.248;-0.844;2022-09-17T18:21:03;8.40;;;3.30;;
62925;SDS011;55732;52.248;-0.844;2022-09-17T18:23:30;5.50;;;3.10;;
62925;SDS011;55732;52.248;-0.844;2022-09-17T18:25:59;9.40;;;4.90;;
62925;SDS011;55732;52.248;-0.844;2022-09-17T18:28:26;12.40;;;5.90;;
62925;SDS011;55732;52.248;-0.844;2022-09-17T18:30:52;8.40;;;5.10;;
62925;SDS011;55732;52.248;-0.844;2022-09-17T18:33:20;9.10;;;4.10;;
62925;SDS011;55732;52.248;-0.844;2022-09-17T18:35:50;8.30;;;3.60;;
62925;SDS011;55732;52.248;-0.844;2022-09-17T18:38:20;7.40;;;3.50;;
62925;SDS011;55732;52.248;-0.844;2022-09-17T18:40:46;4.00;;;2.90;;
62925;SDS011;55732;52.248;-0.844;2022-09-17T18:43:11;4.40;;;2.40;;
62925;SDS011;55732;52.248;-0.844;2022-09-17T18:45:37;4.10;;;2.20;;
62925;SDS011;55732;52.248;-0.844;2022-09-17T18:48:05;3.80;;;2.20;;